Airfield :
LOGIN :

Register | Disclaimer

   EN    FR    IT 

 










Legend :    VFR   Marginal VFR   IFR   Intensive IFR   Very Intensive IFR
Visi :
Ceiling :
>= 8 km
>= 3000ft
5 to 8 km
1000 to 3000 ft
1500m to 5 km
500 to 1000 ft
800 to 1500m
200 to 500 ft
< 800m
< 200 ft
Symbols :   Thunderstorms  Fog  Heavy snow  Heavy precipitations  Wind > 20 kt
SIGMETs :     Misc.  Thunderstorms  Icing  Turbulence  Mountain Waves  Volcanic Ashes






- Airport Elevation : 12 ft
- IATA code : BCN


LEBL - Barcelone

CURRENT METAR :
  • 070730Z 33013G27KT 9999 FEW050 24/16 Q1020 NOSIG

EXPIRED METARs :
  • 070700Z 32013KT 290V360 9999 FEW050 24/16 Q1020 NOSIG
  • 070630Z 33015G27KT 9999 FEW050 23/16 Q1020 NOSIG
  • 070600Z 32011G21KT 290V350 9999 FEW050 22/16 Q1020 NOSIG
  • 070530Z 32010KT 9999 FEW050 22/16 Q1020 NOSIG
  • 070500Z 32011KT 9999 FEW050 22/15 Q1020 NOSIG
  • 070430Z 32014KT CAVOK 22/16 Q1020 NOSIG

TAF AMD TAF LEBL
Valid from the 07 at 07:00 until the 08 at 06:00 UTC


070713Z 0707/0806 33008KT 9999 FEW020 TX30/0712Z TN22/0806Z
BECMG 0708/0710 20010KT
PROB40
TEMPO 0710/0716 TS FEW050CB
PROB40
TEMPO 0711/0717 20015G25KT
BECMG 0718/0720 24005KT
BECMG 0722/0801 35006KT



MET'MAP, your aeronautical weather chart ! - Copyright ORBIFLY December 2007 - Disclaimer

ORBIFLY MET'MAP TEAM :

Programming & Development : Alexandra Zaïnal
Original concept : Baudouin d'Aumeries
Technical & hardware support : Manuel Goepfert
Assistance : Marc-Olivier Méhu




SOURCES & CREDITS :

   NOAA